METAR Data
IDs: Format: Raw Decoded Include TAF

Data at: 1710 UTC 16 Oct 2021

KAQO 161655Z AUTO 36011KT 10SM CLR 19/02 A3041 RMK AO2
KAQO 161635Z AUTO 04012KT 10SM CLR 19/01 A3041 RMK AO2
KAQO 161615Z AUTO 03010G15KT 10SM CLR 19/01 A3041 RMK AO2
KAQO 161555Z AUTO 04012KT 10SM CLR 18/02 A3041 RMK AO2
KAQO 161535Z AUTO 04005KT 10SM CLR 18/05 A3041 RMK AO2
KAQO 161515Z AUTO 03008KT 10SM CLR 17/04 A3041 RMK AO2
KAQO 161455Z AUTO 03005KT 10SM CLR 16/06 A3040 RMK AO2
KAQO 161435Z AUTO 34004KT 10SM CLR 14/07 A3040 RMK AO2
KAQO 161415Z AUTO 35004KT 10SM CLR 12/08 A3039 RMK AO2
KAQO 161355Z AUTO 32003KT 10SM CLR 11/07 A3038 RMK AO2
KAQO 161335Z AUTO 00000KT 10SM CLR 09/07 A3038 RMK AO2
KAQO 161315Z AUTO 00000KT 10SM CLR 07/06 A3037 RMK AO2
KAQO 161255Z AUTO 00000KT 10SM CLR 07/06 A3036 RMK AO2
KAQO 161235Z AUTO 00000KT 10SM CLR 07/06 A3036 RMK AO2
KAQO 161215Z AUTO 00000KT 10SM CLR 08/06 A3035 RMK AO2
KAQO 161155Z AUTO 00000KT 10SM CLR 09/06 A3035 RMK AO2
KAQO 161135Z AUTO 00000KT 10SM CLR 08/06 A3034 RMK AO2
KAQO 161115Z AUTO 00000KT 10SM CLR 08/06 A3033 RMK AO2
KAQO 161055Z AUTO 26003KT 10SM FEW040 09/06 A3033 RMK AO2
KAQO 161035Z AUTO 00000KT 10SM FEW038 FEW045 09/06 A3032 RMK AO2
KAQO 161015Z AUTO 00000KT 10SM FEW039 FEW046 09/07 A3032 RMK AO2
KAQO 160955Z AUTO 00000KT 10SM FEW039 FEW046 FEW070 08/06 A3031 RMK AO2
KAQO 160935Z AUTO 30003KT 10SM CLR 10/07 A3031 RMK AO2
KAQO 160915Z AUTO 00000KT 10SM CLR 10/07 A3031 RMK AO2
KAQO 160855Z AUTO 30003KT 10SM CLR 10/07 A3030 RMK AO2
KAQO 160835Z AUTO 00000KT 10SM CLR 11/07 A3031 RMK AO2
KAQO 160815Z AUTO 30003KT 10SM CLR 10/07 A3031 RMK AO2
KAQO 160755Z AUTO 00000KT 10SM CLR 11/08 A3031 RMK AO2
KAQO 160735Z AUTO 00000KT 10SM CLR 12/08 A3030 RMK AO2
KAQO 160715Z AUTO 00000KT 10SM CLR 12/08 A3030 RMK AO2
KAQO 160655Z AUTO 34003KT 10SM CLR 13/08 A3029 RMK AO2
KAQO 160635Z AUTO 33004KT 6SM -RA HZ FEW070 13/08 A3029 RMK AO2
KAQO 160615Z AUTO 34004KT 10SM SCT070 14/08 A3029 RMK AO2
KAQO 160555Z AUTO 35004KT 10SM SCT070 14/08 A3028 RMK AO2
KAQO 160535Z AUTO 35007KT 10SM FEW060 FEW070 15/08 A3028 RMK AO2
KAQO 160515Z AUTO 36006KT 10SM CLR 16/07 A3028 RMK AO2
KAQO 160455Z AUTO 02007KT 10SM FEW033 16/07 A3028 RMK AO2
KAQO 160435Z AUTO 02007KT 10SM SCT029 BKN034 17/07 A3028 RMK AO2
KAQO 160415Z AUTO 02007KT 10SM OVC029 17/07 A3026 RMK AO2
KAQO 160355Z AUTO 01007KT 10SM BKN029 BKN033 OVC055 17/08 A3025 RMK AO2
KAQO 160335Z AUTO 36009KT 10SM SCT031 SCT036 BKN055 18/08 A3024 RMK AO2
KAQO 160315Z AUTO 36006KT 10SM SCT034 SCT055 SCT065 18/08 A3022 RMK AO2
KAQO 160255Z AUTO 01006G12KT 10SM FEW055 18/08 A3021 RMK AO2
KAQO 160235Z AUTO 02009G14KT 10SM FEW034 FEW050 SCT055 18/08 A3020 RMK AO2
KAQO 160215Z AUTO 01008KT 10SM SCT033 SCT055 19/09 A3019 RMK AO2
KAQO 160155Z AUTO 36007KT 10SM FEW029 SCT034 BKN055 19/09 A3018 RMK AO2
KAQO 160135Z AUTO 36008KT 10SM FEW024 SCT031 BKN055 19/09 A3017 RMK AO2
KAQO 160115Z AUTO 36006KT 10SM FEW031 FEW038 SCT049 20/09 A3016 RMK AO2
KAQO 160055Z AUTO 36006KT 10SM CLR 20/10 A3015 RMK AO2
KAQO 160035Z AUTO 36008G15KT 10SM CLR 21/10 A3014 RMK AO2
KAQO 160015Z AUTO 35009KT 10SM CLR 21/10 A3013 RMK AO2
KAQO 152355Z AUTO 36009KT 10SM CLR 22/10 A3012 RMK AO2
KAQO 152335Z AUTO 35010KT 10SM CLR 23/10 A3011 RMK AO2
KAQO 152315Z AUTO 35013KT 10SM CLR 23/10 A3010 RMK AO2
KAQO 152255Z AUTO 35010KT 10SM CLR 24/11 A3009 RMK AO2
KAQO 152235Z AUTO 01011G17KT 10SM CLR 24/10 A3008 RMK AO2
KAQO 152215Z AUTO 35011G16KT 10SM CLR 25/11 A3008 RMK AO2
KAQO 152155Z AUTO 35014G20KT 10SM CLR 25/11 A3007 RMK AO2
KAQO 152135Z AUTO 34014G20KT 10SM CLR 25/12 A3007 RMK AO2
KAQO 152115Z AUTO 36013G19KT 10SM CLR 24/13 A3006 RMK AO2
KAQO 152055Z AUTO 34012G18KT 10SM CLR 24/13 A3007 RMK AO2
KAQO 152035Z AUTO 33012G17KT 10SM CLR 24/14 A3007 RMK AO2
KAQO 152015Z AUTO 34014G19KT 10SM CLR 24/14 A3006 RMK AO2
KAQO 151955Z AUTO 35012G19KT 10SM CLR 24/14 A3005 RMK AO2
KAQO 151935Z AUTO 35016KT 10SM CLR 24/14 A3006 RMK AO2
KAQO 151915Z AUTO 36015G20KT 10SM CLR 25/15 A3005 RMK AO2
KAQO 151855Z AUTO 35013G19KT 10SM CLR 25/15 A3006 RMK AO2
KAQO 151835Z AUTO 34013G19KT 10SM CLR 25/14 A3006 RMK AO2
KAQO 151815Z AUTO 32015G25KT 10SM CLR 25/14 A3005 RMK AO2
KAQO 151755Z AUTO 33014G21KT 10SM CLR 25/13 A3005 RMK AO2
KAQO 151735Z AUTO 33015G21KT 10SM CLR 25/14 A3004 RMK AO2
KAQO 151715Z AUTO 35014G20KT 10SM CLR 26/14 A3004 RMK AO2
KAQO 151655Z AUTO 32013G19KT 10SM CLR 26/13 A3003 RMK AO2
KAQO 151635Z AUTO 33013KT 10SM SCT023 SCT028 SCT033 26/19 A3002 RMK AO2
KAQO 151615Z AUTO 32011KT 260V360 10SM BKN022 BKN028 OVC033 27/22 A3002 RMK AO2
KAQO 151555Z AUTO 28007KT 10SM BKN019 BKN023 BKN029 26/22 A3001 RMK AO2
KAQO 151535Z AUTO 27008KT 240V300 10SM FEW016 26/22 A3001 RMK AO2
KAQO 151515Z AUTO 25006KT 10SM FEW029 25/22 A3000 RMK AO2
KAQO 151455Z AUTO 24004KT 10SM BKN027 24/22 A2999 RMK AO2
KAQO 151435Z AUTO 22003KT 10SM OVC024 23/22 A2999 RMK AO2
KAQO 151415Z AUTO 00000KT 9SM OVC022 23/22 A2998 RMK AO2
KAQO 151355Z AUTO 00000KT 8SM OVC022 22/21 A2997 RMK AO2
KAQO 151335Z AUTO 00000KT 6SM BR OVC022 22/21 A2996 RMK AO2
KAQO 151315Z AUTO 00000KT 5SM BR OVC022 22/21 A2996 RMK AO2
KAQO 151255Z AUTO 00000KT 4SM BR OVC021 22/21 A2995 RMK AO2
KAQO 151235Z AUTO 00000KT 6SM BR OVC020 22/21 A2994 RMK AO2
KAQO 151215Z AUTO 00000KT 6SM BR SCT014 OVC020 22/21 A2994 RMK AO2
KAQO 151155Z AUTO 00000KT 5SM BR OVC014 22/21 A2993 RMK AO2
KAQO 151135Z AUTO 00000KT 6SM BR OVC014 22/21 A2992 RMK AO2
KAQO 151115Z AUTO 00000KT 7SM OVC015 22/21 A2992 RMK AO2
KAQO 151055Z AUTO 00000KT 9SM OVC014 22/21 A2991 RMK AO2
KAQO 151035Z AUTO 00000KT 7SM OVC016 21/20 A2990 RMK AO2
KAQO 151015Z AUTO 00000KT 6SM BR BKN015 21/21 A2990 RMK AO2
KAQO 150955Z AUTO 00000KT 6SM BR OVC013 22/21 A2989 RMK AO2
KAQO 150935Z AUTO 00000KT 6SM BR OVC011 21/21 A2989 RMK AO2
KAQO 150915Z AUTO 00000KT 6SM BR OVC011 21/21 A2988 RMK AO2
KAQO 150855Z AUTO 00000KT 7SM OVC011 21/21 A2988 RMK AO2
KAQO 150835Z AUTO 00000KT 7SM OVC010 21/21 A2988 RMK AO2
KAQO 150815Z AUTO 00000KT 7SM OVC008 21/21 A2988 RMK AO2
KAQO 150755Z AUTO 00000KT 5SM BR OVC010 21/21 A2988 RMK AO2
KAQO 150735Z AUTO 12004KT 4SM BR FEW003 BKN011 OVC018 20/20 A2988 RMK AO2
KAQO 150715Z AUTO 00000KT 4SM BR SCT013 BKN018 BKN025 20/20 A2988 RMK AO2
KAQO 150655Z AUTO 11003KT 5SM BR BKN014 20/20 A2988 RMK AO2
KAQO 150635Z AUTO 10004KT 2 1/2SM BR BKN013 20/19 A2988 RMK AO2
KAQO 150615Z AUTO 00000KT 8SM BKN014 20/20 A2988 RMK AO2
KAQO 150555Z AUTO 00000KT 7SM FEW015 20/20 A2988 RMK AO2
KAQO 150535Z AUTO 00000KT 6SM BR CLR 20/19 A2988 RMK AO2
KAQO 150515Z AUTO 00000KT 5SM BR CLR 20/20 A2988 RMK AO2